^^
Saratoga-Weather Station Historical Data
Daily Summary for January 2, 2021 Units:  Both    English   Metric
Daily Weekly Monthly Yearly Custom
  High: Low: Average:
Temperature: 37.2 °F /  2.9 °C 29.8 °F /  -1.2 °C 33.6 °F /  0.9 °C
Dew Point: 34 °F /  1.1 °C 28.8 °F /  -1.8 °C 31.3 °F /  -0.4 °C
Humidity: 96% 81% 92%
Wind Speed: 3mph /  4.8km/h - 0.6mph /  1km/h
Wind Gust: 7mph /  11.3km/h - -
Wind- - SE
Pressure: 29.9 in /  1013.9 hPa 29.9 in /  1011.9 hPa -
Precipitation: 0 in /  0.0 mm    
Historical Graphs
 
 
Tabular Data for January 2, 2021
Time Temperature Dew Point Pressure Wind Wind Speed Wind Gust Humidity Rainfall Rate (Hourly) solar
00:01 35.8 °F /  2.1 °C 34 °F /  1.1 °C 29.9in /  1011.9hPa Calm     93% 0in /  0.0mm 0 W/m2
00:06 35.8 °F /  2.1 °C 34 °F /  1.1 °C 29.9in /  1011.9hPa Calm     93% 0in /  0.0mm 0 W/m2
00:11 35.4 °F /  1.9 °C 33.6 °F /  0.9 °C 29.9in /  1011.9hPa Calm     93% 0in /  0.0mm 0 W/m2
00:16 35.4 °F /  1.9 °C 33.6 °F /  0.9 °C 29.9in /  1011.9hPa Calm     93% 0in /  0.0mm 0 W/m2
00:21 35.2 °F /  1.8 °C 33.6 °F /  0.9 °C 29.9in /  1012.2hPa ESE 2mph /  3.2km/h 2mph /  3.2km/h 94% 0in /  0.0mm 0 W/m2
00:26 35.2 °F /  1.8 °C 33.6 °F /  0.9 °C 29.9in /  1012.2hPa Calm     94% 0in /  0.0mm 0 W/m2
00:31 35.4 °F /  1.9 °C 33.8 °F /  1 °C 29.9in /  1012.2hPa Calm   1mph /  1.6km/h 94% 0in /  0.0mm 0 W/m2
00:36 35.4 °F /  1.9 °C 33.8 °F /  1 °C 29.9in /  1012.2hPa ESE 0.9mph /  1.4km/h 1mph /  1.6km/h 94% 0in /  0.0mm 0 W/m2
00:41 35.4 °F /  1.9 °C 33.8 °F /  1 °C 29.9in /  1012.2hPa Calm   1mph /  1.6km/h 94% 0in /  0.0mm 0 W/m2
00:46 35.2 °F /  1.8 °C 33.6 °F /  0.9 °C 29.9in /  1012.2hPa Calm     94% 0in /  0.0mm 0 W/m2
00:51 35.2 °F /  1.8 °C 33.6 °F /  0.9 °C 29.9in /  1012.2hPa Calm     94% 0in /  0.0mm 0 W/m2
00:56 35.1 °F /  1.7 °C 33.3 °F /  0.7 °C 29.9in /  1012.2hPa Calm     93% 0in /  0.0mm 0 W/m2
01:01 34.9 °F /  1.6 °C 33.1 °F /  0.6 °C 29.9in /  1012.2hPa Calm     93% 0in /  0.0mm 0 W/m2
01:06 34.7 °F /  1.5 °C 33.1 °F /  0.6 °C 29.9in /  1012.2hPa Calm     94% 0in /  0.0mm 0 W/m2
01:11 34.5 °F /  1.4 °C 32.7 °F /  0.4 °C 29.9in /  1012.2hPa Calm     93% 0in /  0.0mm 0 W/m2
01:16 34.3 °F /  1.3 °C 32.7 °F /  0.4 °C 29.9in /  1012.2hPa Calm     94% 0in /  0.0mm 0 W/m2
01:21 34.3 °F /  1.3 °C 32.7 °F /  0.4 °C 29.9in /  1012.2hPa Calm   1mph /  1.6km/h 94% 0in /  0.0mm 0 W/m2
01:26 34.2 °F /  1.2 °C 32.5 °F /  0.3 °C 29.9in /  1012.2hPa Calm     94% 0in /  0.0mm 0 W/m2
01:31 34.2 °F /  1.2 °C 32.5 °F /  0.3 °C 29.9in /  1012.2hPa Calm   1mph /  1.6km/h 94% 0in /  0.0mm 0 W/m2
01:36 34 °F /  1.1 °C 32.4 °F /  0.2 °C 29.9in /  1012.2hPa Calm     94% 0in /  0.0mm 0 W/m2
01:41 34 °F /  1.1 °C 32.4 °F /  0.2 °C 29.9in /  1012.2hPa Calm     94% 0in /  0.0mm 0 W/m2
01:46 33.8 °F /  1 °C 32.2 °F /  0.1 °C 29.9in /  1012.2hPa Calm     94% 0in /  0.0mm 0 W/m2
01:51 33.6 °F /  0.9 °C 32 °F /  0 °C 29.9in /  1012.2hPa Calm     94% 0in /  0.0mm 0 W/m2
01:56 33.6 °F /  0.9 °C 32 °F /  0 °C 29.9in /  1012.2hPa Calm     94% 0in /  0.0mm 0 W/m2
02:01 33.6 °F /  0.9 °C 32.4 °F /  0.2 °C 29.9in /  1012.2hPa Calm   1mph /  1.6km/h 95% 0in /  0.0mm 0 W/m2
02:06 33.4 °F /  0.8 °C 31.8 °F /  -0.1 °C 29.9in /  1012.2hPa Calm     94% 0in /  0.0mm 0 W/m2
02:11 33.4 °F /  0.8 °C 32.2 °F /  0.1 °C 29.9in /  1012.2hPa Calm     95% 0in /  0.0mm 0 W/m2
02:16 33.4 °F /  0.8 °C 32.2 °F /  0.1 °C 29.9in /  1012.2hPa Calm     95% 0in /  0.0mm 0 W/m2
02:21 33.3 °F /  0.7 °C 32 °F /  0 °C 29.9in /  1012.2hPa Calm     95% 0in /  0.0mm 0 W/m2
02:26 33.1 °F /  0.6 °C 31.5 °F /  -0.3 °C 29.9in /  1012.2hPa Calm     94% 0in /  0.0mm 0 W/m2
02:31 32.9 °F /  0.5 °C 31.3 °F /  -0.4 °C 29.9in /  1012.5hPa Calm     94% 0in /  0.0mm 0 W/m2
02:36 32.7 °F /  0.4 °C 31.1 °F /  -0.5 °C 29.9in /  1012.5hPa Calm     94% 0in /  0.0mm 0 W/m2
02:41 32.5 °F /  0.3 °C 30.9 °F /  -0.6 °C 29.9in /  1012.5hPa Calm     94% 0in /  0.0mm 0 W/m2
02:46 32.2 °F /  0.1 °C 30.6 °F /  -0.8 °C 29.9in /  1012.5hPa Calm     94% 0in /  0.0mm 0 W/m2
02:51 32 °F /  0 °C 30.6 °F /  -0.8 °C 29.9in /  1012.5hPa Calm     94% 0in /  0.0mm 0 W/m2
02:56 31.8 °F /  -0.1 °C 30.4 °F /  -0.9 °C 29.9in /  1012.5hPa Calm     94% 0in /  0.0mm 0 W/m2
03:01 31.6 °F /  -0.2 °C 30.2 °F /  -1 °C 29.9in /  1012.5hPa Calm     94% 0in /  0.0mm 0 W/m2
03:06 31.6 °F /  -0.2 °C 30.4 °F /  -0.9 °C 29.9in /  1012.5hPa Calm     95% 0in /  0.0mm 0 W/m2
03:11 31.6 °F /  -0.2 °C 30.4 °F /  -0.9 °C 29.9in /  1012.5hPa Calm     95% 0in /  0.0mm 0 W/m2
03:17 31.6 °F /  -0.2 °C 30.4 °F /  -0.9 °C 29.9in /  1012.5hPa ESE 0.9mph /  1.4km/h 2mph /  3.2km/h 95% 0in /  0.0mm 0 W/m2
03:22 31.5 °F /  -0.3 °C 30.2 °F /  -1 °C 29.9in /  1012.5hPa Calm     95% 0in /  0.0mm 0 W/m2
03:27 31.5 °F /  -0.3 °C 30.2 °F /  -1 °C 29.9in /  1012.5hPa Calm     95% 0in /  0.0mm 0 W/m2
03:32 31.3 °F /  -0.4 °C 30 °F /  -1.1 °C 29.9in /  1012.5hPa Calm     95% 0in /  0.0mm 0 W/m2
03:37 31.1 °F /  -0.5 °C 29.8 °F /  -1.2 °C 29.9in /  1012.5hPa Calm     95% 0in /  0.0mm 0 W/m2
03:42 30.9 °F /  -0.6 °C 29.7 °F /  -1.3 °C 29.9in /  1012.5hPa Calm     95% 0in /  0.0mm 0 W/m2
03:47 30.7 °F /  -0.7 °C 29.5 °F /  -1.4 °C 29.9in /  1012.5hPa Calm   1mph /  1.6km/h 95% 0in /  0.0mm 0 W/m2
03:52 30.7 °F /  -0.7 °C 29.5 °F /  -1.4 °C 29.9in /  1012.5hPa Calm     95% 0in /  0.0mm 0 W/m2
03:57 30.6 °F /  -0.8 °C 29.3 °F /  -1.5 °C 29.9in /  1012.5hPa Calm   1mph /  1.6km/h 95% 0in /  0.0mm 0 W/m2
04:02 30.6 °F /  -0.8 °C 29.3 °F /  -1.5 °C 29.9in /  1012.5hPa ESE 0.9mph /  1.4km/h 1mph /  1.6km/h 95% 0in /  0.0mm 0 W/m2
04:07 30.6 °F /  -0.8 °C 29.3 °F /  -1.5 °C 29.9in /  1012.5hPa Calm   1mph /  1.6km/h 95% 0in /  0.0mm 0 W/m2
04:12 30.6 °F /  -0.8 °C 29.3 °F /  -1.5 °C 29.9in /  1012.5hPa Calm   2mph /  3.2km/h 95% 0in /  0.0mm 0 W/m2
04:17 30.6 °F /  -0.8 °C 29.3 °F /  -1.5 °C 29.9in /  1012.5hPa Calm   1mph /  1.6km/h 95% 0in /  0.0mm 0 W/m2
04:22 30.7 °F /  -0.7 °C 29.5 °F /  -1.4 °C 29.9in /  1012.5hPa Calm   2mph /  3.2km/h 95% 0in /  0.0mm 0 W/m2
04:27 30.9 °F /  -0.6 °C 29.8 °F /  -1.2 °C 29.9in /  1012.5hPa SSE 0.9mph /  1.4km/h 2mph /  3.2km/h 96% 0in /  0.0mm 0 W/m2
04:32 30.9 °F /  -0.6 °C 29.8 °F /  -1.2 °C 29.9in /  1012.5hPa Calm     96% 0in /  0.0mm 0 W/m2
04:37 30.9 °F /  -0.6 °C 29.8 °F /  -1.2 °C 29.9in /  1012.5hPa SSE 0.9mph /  1.4km/h 2mph /  3.2km/h 96% 0in /  0.0mm 0 W/m2
04:42 30.9 °F /  -0.6 °C 29.8 °F /  -1.2 °C 29.9in /  1012.5hPa Calm     96% 0in /  0.0mm 0 W/m2
04:47 30.9 °F /  -0.6 °C 29.8 °F /  -1.2 °C 29.9in /  1012.5hPa SSE 0.9mph /  1.4km/h 2mph /  3.2km/h 96% 0in /  0.0mm 0 W/m2
04:52 30.9 °F /  -0.6 °C 29.8 °F /  -1.2 °C 29.9in /  1012.9hPa Calm   1mph /  1.6km/h 96% 0in /  0.0mm 0 W/m2
04:57 30.9 °F /  -0.6 °C 29.8 °F /  -1.2 °C 29.9in /  1012.5hPa NW 0.9mph /  1.4km/h 1mph /  1.6km/h 96% 0in /  0.0mm 0 W/m2
05:02 31.3 °F /  -0.4 °C 30.2 °F /  -1 °C 29.9in /  1012.9hPa Calm   3mph /  4.8km/h 96% 0in /  0.0mm 0 W/m2
05:07 31.5 °F /  -0.3 °C 30.4 °F /  -0.9 °C 29.9in /  1012.9hPa Calm   2mph /  3.2km/h 96% 0in /  0.0mm 0 W/m2
05:12 31.5 °F /  -0.3 °C 30.4 °F /  -0.9 °C 29.9in /  1012.5hPa Calm   1mph /  1.6km/h 96% 0in /  0.0mm 0 W/m2
05:17 31.5 °F /  -0.3 °C 30.4 °F /  -0.9 °C 29.9in /  1012.9hPa Calm   2mph /  3.2km/h 96% 0in /  0.0mm 0 W/m2
05:22 31.5 °F /  -0.3 °C 30.4 °F /  -0.9 °C 29.9in /  1012.9hPa Calm     96% 0in /  0.0mm 0 W/m2
05:27 31.5 °F /  -0.3 °C 30.4 °F /  -0.9 °C 29.9in /  1012.9hPa Calm   1mph /  1.6km/h 96% 0in /  0.0mm 0 W/m2
05:32 31.5 °F /  -0.3 °C 30.4 °F /  -0.9 °C 29.9in /  1012.9hPa West 2mph /  3.2km/h 2mph /  3.2km/h 96% 0in /  0.0mm 0 W/m2
05:37 31.5 °F /  -0.3 °C 30.2 °F /  -1 °C 29.9in /  1012.9hPa East 0.9mph /  1.4km/h 3mph /  4.8km/h 95% 0in /  0.0mm 0 W/m2
05:42 31.5 °F /  -0.3 °C 30.2 °F /  -1 °C 29.9in /  1012.9hPa East 0.9mph /  1.4km/h 2mph /  3.2km/h 95% 0in /  0.0mm 0 W/m2
05:47 31.3 °F /  -0.4 °C 30 °F /  -1.1 °C 29.9in /  1012.9hPa NE 0.9mph /  1.4km/h 3mph /  4.8km/h 95% 0in /  0.0mm 0 W/m2
05:52 31.3 °F /  -0.4 °C 30 °F /  -1.1 °C 29.9in /  1012.9hPa Calm   2mph /  3.2km/h 95% 0in /  0.0mm 0 W/m2
05:57 31.1 °F /  -0.5 °C 29.8 °F /  -1.2 °C 29.9in /  1012.9hPa ENE 0.9mph /  1.4km/h 3mph /  4.8km/h 95% 0in /  0.0mm 0 W/m2
06:02 30.9 °F /  -0.6 °C 29.7 °F /  -1.3 °C 29.9in /  1012.9hPa WNW 0.9mph /  1.4km/h 1mph /  1.6km/h 95% 0in /  0.0mm 0 W/m2
06:07 30.9 °F /  -0.6 °C 29.7 °F /  -1.3 °C 29.9in /  1012.9hPa Calm   1mph /  1.6km/h 95% 0in /  0.0mm 0 W/m2
06:12 30.9 °F /  -0.6 °C 29.7 °F /  -1.3 °C 29.9in /  1012.9hPa NW 2mph /  3.2km/h 4mph /  6.4km/h 95% 0in /  0.0mm 0 W/m2
06:17 30.7 °F /  -0.7 °C 29.5 °F /  -1.4 °C 29.9in /  1012.9hPa Calm   3mph /  4.8km/h 95% 0in /  0.0mm 0 W/m2
06:22 30.7 °F /  -0.7 °C 29.5 °F /  -1.4 °C 29.9in /  1012.9hPa WNW 2mph /  3.2km/h 4mph /  6.4km/h 95% 0in /  0.0mm 0 W/m2
06:27 30.7 °F /  -0.7 °C 29.5 °F /  -1.4 °C 29.9in /  1012.9hPa WNW 2.9mph /  4.7km/h 6mph /  9.7km/h 95% 0in /  0.0mm 0 W/m2
06:32 30.6 °F /  -0.8 °C 29.3 °F /  -1.5 °C 29.9in /  1012.9hPa NW 2mph /  3.2km/h 3mph /  4.8km/h 95% 0in /  0.0mm 0 W/m2
06:37 30.6 °F /  -0.8 °C 29.3 °F /  -1.5 °C 29.9in /  1012.9hPa WNW 2.9mph /  4.7km/h 4mph /  6.4km/h 95% 0in /  0.0mm 0 W/m2
06:42 30.4 °F /  -0.9 °C 29.1 °F /  -1.6 °C 29.9in /  1012.9hPa Calm   3mph /  4.8km/h 95% 0in /  0.0mm 0 W/m2
06:47 30.4 °F /  -0.9 °C 29.3 °F /  -1.5 °C 29.9in /  1012.9hPa NNE 0.9mph /  1.4km/h 5mph /  8km/h 96% 0in /  0.0mm 0 W/m2
06:52 30.4 °F /  -0.9 °C 29.3 °F /  -1.5 °C 29.9in /  1012.9hPa NE 2mph /  3.2km/h 3mph /  4.8km/h 96% 0in /  0.0mm 0 W/m2
06:57 30.4 °F /  -0.9 °C 29.3 °F /  -1.5 °C 29.9in /  1012.9hPa NNE 2mph /  3.2km/h 4mph /  6.4km/h 96% 0in /  0.0mm 0 W/m2
07:02 30.2 °F /  -1 °C 28.9 °F /  -1.7 °C 29.9in /  1012.9hPa ENE 2mph /  3.2km/h 5mph /  8km/h 95% 0in /  0.0mm 0 W/m2
07:07 30 °F /  -1.1 °C 28.9 °F /  -1.7 °C 29.9in /  1013.2hPa West 2mph /  3.2km/h 3mph /  4.8km/h 96% 0in /  0.0mm 0 W/m2
07:12 30 °F /  -1.1 °C 28.9 °F /  -1.7 °C 29.9in /  1012.9hPa NNW 2mph /  3.2km/h 4mph /  6.4km/h 96% 0in /  0.0mm 0 W/m2
07:17 30 °F /  -1.1 °C 28.9 °F /  -1.7 °C 29.9in /  1013.2hPa Calm   1mph /  1.6km/h 96% 0in /  0.0mm 0 W/m2
07:22 30 °F /  -1.1 °C 28.9 °F /  -1.7 °C 29.9in /  1013.2hPa Calm   4mph /  6.4km/h 96% 0in /  0.0mm 0 W/m2
07:27 30.2 °F /  -1 °C 29.1 °F /  -1.6 °C 29.9in /  1013.2hPa Calm   2mph /  3.2km/h 96% 0in /  0.0mm 0 W/m2
07:32 30.4 °F /  -0.9 °C 29.3 °F /  -1.5 °C 29.9in /  1013.2hPa NNW 0.9mph /  1.4km/h 1mph /  1.6km/h 96% 0in /  0.0mm 0 W/m2
07:37 30.4 °F /  -0.9 °C 29.3 °F /  -1.5 °C 29.9in /  1013.2hPa NE 0.9mph /  1.4km/h 2mph /  3.2km/h 96% 0in /  0.0mm 0 W/m2
07:42 30.4 °F /  -0.9 °C 29.3 °F /  -1.5 °C 29.9in /  1013.2hPa NNE 2mph /  3.2km/h 2mph /  3.2km/h 96% 0in /  0.0mm 0 W/m2
07:47 30.4 °F /  -0.9 °C 29.3 °F /  -1.5 °C 29.9in /  1013.2hPa North 0.9mph /  1.4km/h 3mph /  4.8km/h 96% 0in /  0.0mm 0 W/m2
07:52 30.4 °F /  -0.9 °C 29.3 °F /  -1.5 °C 29.9in /  1013.2hPa NNE 0.9mph /  1.4km/h 2mph /  3.2km/h 96% 0in /  0.0mm 0 W/m2
07:57 30.4 °F /  -0.9 °C 29.3 °F /  -1.5 °C 29.9in /  1013.2hPa NE 2mph /  3.2km/h 4mph /  6.4km/h 96% 0in /  0.0mm 0 W/m2
08:02 30.4 °F /  -0.9 °C 29.3 °F /  -1.5 °C 29.9in /  1013.2hPa Calm   1mph /  1.6km/h 96% 0in /  0.0mm 0 W/m2
08:07 30.2 °F /  -1 °C 29.1 °F /  -1.6 °C 29.9in /  1013.2hPa NE 2mph /  3.2km/h 3mph /  4.8km/h 96% 0in /  0.0mm 0 W/m2
08:12 30 °F /  -1.1 °C 28.9 °F /  -1.7 °C 29.9in /  1013.5hPa NNE 0.9mph /  1.4km/h 2mph /  3.2km/h 96% 0in /  0.0mm 0 W/m2
08:17 30 °F /  -1.1 °C 28.9 °F /  -1.7 °C 29.9in /  1013.5hPa ENE 2mph /  3.2km/h 3mph /  4.8km/h 96% 0in /  0.0mm 0 W/m2
08:22 30 °F /  -1.1 °C 28.9 °F /  -1.7 °C 29.9in /  1013.5hPa ENE 2mph /  3.2km/h 2mph /  3.2km/h 96% 0in /  0.0mm 0 W/m2
08:27 30 °F /  -1.1 °C 28.9 °F /  -1.7 °C 29.9in /  1013.5hPa ENE 2mph /  3.2km/h 6mph /  9.7km/h 96% 0in /  0.0mm 0 W/m2
08:32 30 °F /  -1.1 °C 28.9 °F /  -1.7 °C 29.9in /  1013.5hPa Calm   1mph /  1.6km/h 96% 0in /  0.0mm 0 W/m2
08:37 30 °F /  -1.1 °C 28.9 °F /  -1.7 °C 29.9in /  1013.5hPa NNW 2mph /  3.2km/h 6mph /  9.7km/h 96% 0in /  0.0mm 0 W/m2
08:42 30 °F /  -1.1 °C 28.9 °F /  -1.7 °C 29.9in /  1013.5hPa WNW 2mph /  3.2km/h 3mph /  4.8km/h 96% 0in /  0.0mm 0 W/m2
08:47 30 °F /  -1.1 °C 28.9 °F /  -1.7 °C 29.9in /  1013.5hPa Calm   2mph /  3.2km/h 96% 0in /  0.0mm 0 W/m2
08:52 29.8 °F /  -1.2 °C 28.8 °F /  -1.8 °C 29.9in /  1013.5hPa Calm   3mph /  4.8km/h 96% 0in /  0.0mm 5 W/m2
08:57 29.8 °F /  -1.2 °C 28.8 °F /  -1.8 °C 29.9in /  1013.5hPa ENE 2.9mph /  4.7km/h 4mph /  6.4km/h 96% 0in /  0.0mm 5 W/m2
09:02 30 °F /  -1.1 °C 28.9 °F /  -1.7 °C 29.9in /  1013.9hPa ENE 2mph /  3.2km/h 7mph /  11.3km/h 96% 0in /  0.0mm 5 W/m2
09:07 30 °F /  -1.1 °C 28.9 °F /  -1.7 °C 29.9in /  1013.5hPa Calm   2mph /  3.2km/h 96% 0in /  0.0mm 9 W/m2
09:12 30 °F /  -1.1 °C 28.9 °F /  -1.7 °C 29.9in /  1013.5hPa NNE 0.9mph /  1.4km/h 6mph /  9.7km/h 96% 0in /  0.0mm 12 W/m2
09:17 30 °F /  -1.1 °C 28.9 °F /  -1.7 °C 29.9in /  1013.9hPa Calm     96% 0in /  0.0mm 14 W/m2
09:22 30.2 °F /  -1 °C 29.1 °F /  -1.6 °C 29.9in /  1013.9hPa Calm   2mph /  3.2km/h 96% 0in /  0.0mm 18 W/m2
09:27 30.2 °F /  -1 °C 29.1 °F /  -1.6 °C 29.9in /  1013.9hPa Calm   4mph /  6.4km/h 96% 0in /  0.0mm 18 W/m2
09:32 30.4 °F /  -0.9 °C 29.3 °F /  -1.5 °C 29.9in /  1013.9hPa Calm   2mph /  3.2km/h 96% 0in /  0.0mm 19 W/m2
09:37 30.4 °F /  -0.9 °C 29.3 °F /  -1.5 °C 29.9in /  1013.9hPa NW 2mph /  3.2km/h 3mph /  4.8km/h 96% 0in /  0.0mm 19 W/m2
09:42 30.4 °F /  -0.9 °C 29.3 °F /  -1.5 °C 29.9in /  1013.9hPa NE 0.9mph /  1.4km/h 2mph /  3.2km/h 96% 0in /  0.0mm 25 W/m2
09:47 30.4 °F /  -0.9 °C 29.3 °F /  -1.5 °C 29.9in /  1013.9hPa Calm   1mph /  1.6km/h 96% 0in /  0.0mm 30 W/m2
09:52 30.4 °F /  -0.9 °C 29.3 °F /  -1.5 °C 29.9in /  1013.9hPa NE 2mph /  3.2km/h 3mph /  4.8km/h 96% 0in /  0.0mm 35 W/m2
09:57 30.4 °F /  -0.9 °C 29.3 °F /  -1.5 °C 29.9in /  1013.9hPa Calm   3mph /  4.8km/h 96% 0in /  0.0mm 46 W/m2
10:02 30.4 °F /  -0.9 °C 29.3 °F /  -1.5 °C 29.9in /  1013.9hPa Calm   1mph /  1.6km/h 96% 0in /  0.0mm 47 W/m2
10:07 30.4 °F /  -0.9 °C 29.3 °F /  -1.5 °C 29.9in /  1013.9hPa Calm   3mph /  4.8km/h 96% 0in /  0.0mm 47 W/m2
10:12 30.4 °F /  -0.9 °C 29.3 °F /  -1.5 °C 29.9in /  1013.9hPa Calm   1mph /  1.6km/h 96% 0in /  0.0mm 53 W/m2
10:17 30.6 °F /  -0.8 °C 29.5 °F /  -1.4 °C 29.9in /  1013.9hPa Calm   2mph /  3.2km/h 96% 0in /  0.0mm 49 W/m2
10:23 30.6 °F /  -0.8 °C 29.5 °F /  -1.4 °C 29.9in /  1013.9hPa North 0.9mph /  1.4km/h 2mph /  3.2km/h 96% 0in /  0.0mm 60 W/m2
10:28 30.6 °F /  -0.8 °C 29.5 °F /  -1.4 °C 29.9in /  1013.9hPa ENE 0.9mph /  1.4km/h 2mph /  3.2km/h 96% 0in /  0.0mm 70 W/m2
10:33 30.7 °F /  -0.7 °C 29.7 °F /  -1.3 °C 29.9in /  1013.9hPa Calm     96% 0in /  0.0mm 74 W/m2
10:38 30.7 °F /  -0.7 °C 29.7 °F /  -1.3 °C 29.9in /  1013.9hPa Calm   2mph /  3.2km/h 96% 0in /  0.0mm 90 W/m2
10:43 30.9 °F /  -0.6 °C 29.8 °F /  -1.2 °C 29.9in /  1013.9hPa ENE 0.9mph /  1.4km/h 3mph /  4.8km/h 96% 0in /  0.0mm 91 W/m2
10:48 30.9 °F /  -0.6 °C 29.7 °F /  -1.3 °C 29.9in /  1013.9hPa NE 0.9mph /  1.4km/h 2mph /  3.2km/h 95% 0in /  0.0mm 88 W/m2
10:53 31.1 °F /  -0.5 °C 29.8 °F /  -1.2 °C 29.9in /  1013.9hPa Calm   3mph /  4.8km/h 95% 0in /  0.0mm 98 W/m2
10:58 31.3 °F /  -0.4 °C 30 °F /  -1.1 °C 29.9in /  1013.9hPa Calm   2mph /  3.2km/h 95% 0in /  0.0mm 102 W/m2
11:03 31.5 °F /  -0.3 °C 30.2 °F /  -1 °C 29.9in /  1013.9hPa ENE 0.9mph /  1.4km/h 2mph /  3.2km/h 95% 0in /  0.0mm 104 W/m2
11:08 31.6 °F /  -0.2 °C 30.4 °F /  -0.9 °C 29.9in /  1013.9hPa ENE 0.9mph /  1.4km/h 2mph /  3.2km/h 95% 0in /  0.0mm 90 W/m2
11:13 31.6 °F /  -0.2 °C 30.4 °F /  -0.9 °C 29.9in /  1013.9hPa East 2mph /  3.2km/h 2mph /  3.2km/h 95% 0in /  0.0mm 127 W/m2
11:18 31.8 °F /  -0.1 °C 30.6 °F /  -0.8 °C 29.9in /  1013.9hPa Calm   1mph /  1.6km/h 95% 0in /  0.0mm 135 W/m2
11:23 32 °F /  0 °C 30.7 °F /  -0.7 °C 29.9in /  1013.9hPa East 2mph /  3.2km/h 3mph /  4.8km/h 95% 0in /  0.0mm 153 W/m2
11:28 32.2 °F /  0.1 °C 30.9 °F /  -0.6 °C 29.9in /  1013.9hPa East 0.9mph /  1.4km/h 1mph /  1.6km/h 95% 0in /  0.0mm 192 W/m2
11:33 32.4 °F /  0.2 °C 31.1 °F /  -0.5 °C 29.9in /  1013.9hPa East 0.9mph /  1.4km/h 3mph /  4.8km/h 95% 0in /  0.0mm 197 W/m2
11:38 32.5 °F /  0.3 °C 31.3 °F /  -0.4 °C 29.9in /  1013.9hPa East 0.9mph /  1.4km/h 3mph /  4.8km/h 95% 0in /  0.0mm 190 W/m2
11:43 32.9 °F /  0.5 °C 31.3 °F /  -0.4 °C 29.9in /  1013.9hPa Calm   3mph /  4.8km/h 94% 0in /  0.0mm 200 W/m2
11:53 33.3 °F /  0.7 °C 31.6 °F /  -0.2 °C 29.9in /  1013.5hPa SSE 0.9mph /  1.4km/h 1mph /  1.6km/h 94% 0in /  0.0mm 218 W/m2
11:58 33.6 °F /  0.9 °C 32 °F /  0 °C 29.9in /  1013.5hPa ESE 2mph /  3.2km/h 4mph /  6.4km/h 94% 0in /  0.0mm 153 W/m2
12:03 33.8 °F /  1 °C 32 °F /  0 °C 29.9in /  1013.5hPa Calm   2mph /  3.2km/h 93% 0in /  0.0mm 113 W/m2
12:08 34 °F /  1.1 °C 32.2 °F /  0.1 °C 29.9in /  1013.5hPa North 0.9mph /  1.4km/h 4mph /  6.4km/h 93% 0in /  0.0mm 107 W/m2
12:13 34 °F /  1.1 °C 32.2 °F /  0.1 °C 29.9in /  1013.5hPa North 0.9mph /  1.4km/h 1mph /  1.6km/h 93% 0in /  0.0mm 100 W/m2
12:18 34.2 °F /  1.2 °C 32.4 °F /  0.2 °C 29.9in /  1013.2hPa ENE 2.9mph /  4.7km/h 3mph /  4.8km/h 93% 0in /  0.0mm 113 W/m2
12:24 34.2 °F /  1.2 °C 32 °F /  0 °C 29.9in /  1013.2hPa Calm   1mph /  1.6km/h 92% 0in /  0.0mm 127 W/m2
12:29 34.3 °F /  1.3 °C 32.2 °F /  0.1 °C 29.9in /  1013.2hPa Calm   1mph /  1.6km/h 92% 0in /  0.0mm 144 W/m2
12:34 34.3 °F /  1.3 °C 32.2 °F /  0.1 °C 29.9in /  1013.2hPa NE 0.9mph /  1.4km/h 2mph /  3.2km/h 92% 0in /  0.0mm 128 W/m2
12:39 34.5 °F /  1.4 °C 32.4 °F /  0.2 °C 29.9in /  1013.2hPa Calm   1mph /  1.6km/h 92% 0in /  0.0mm 116 W/m2
12:44 34.5 °F /  1.4 °C 32.2 °F /  0.1 °C 29.9in /  1013.2hPa Calm   2mph /  3.2km/h 91% 0in /  0.0mm 114 W/m2
12:49 34.5 °F /  1.4 °C 32.2 °F /  0.1 °C 29.9in /  1013.2hPa ENE 0.9mph /  1.4km/h 3mph /  4.8km/h 91% 0in /  0.0mm 120 W/m2
12:54 34.5 °F /  1.4 °C 32.2 °F /  0.1 °C 29.9in /  1012.9hPa ENE 2.9mph /  4.7km/h 3mph /  4.8km/h 91% 0in /  0.0mm 135 W/m2
12:59 34.5 °F /  1.4 °C 32.2 °F /  0.1 °C 29.9in /  1012.9hPa ENE 0.9mph /  1.4km/h 2mph /  3.2km/h 91% 0in /  0.0mm 132 W/m2
13:04 34.5 °F /  1.4 °C 31.8 °F /  -0.1 °C 29.9in /  1012.9hPa ENE 0.9mph /  1.4km/h 1mph /  1.6km/h 90% 0in /  0.0mm 137 W/m2
13:09 34.5 °F /  1.4 °C 31.8 °F /  -0.1 °C 29.9in /  1012.9hPa Calm   1mph /  1.6km/h 90% 0in /  0.0mm 127 W/m2
13:14 34.5 °F /  1.4 °C 32.2 °F /  0.1 °C 29.9in /  1012.9hPa Calm     91% 0in /  0.0mm 127 W/m2
13:19 34.7 °F /  1.5 °C 32 °F /  0 °C 29.9in /  1012.9hPa Calm     90% 0in /  0.0mm 120 W/m2
13:24 34.9 °F /  1.6 °C 32.2 °F /  0.1 °C 29.9in /  1012.9hPa Calm     90% 0in /  0.0mm 113 W/m2
13:29 35.1 °F /  1.7 °C 32.4 °F /  0.2 °C 29.9in /  1012.9hPa ESE 2mph /  3.2km/h 2mph /  3.2km/h 90% 0in /  0.0mm 107 W/m2
13:34 35.2 °F /  1.8 °C 32.5 °F /  0.3 °C 29.9in /  1012.9hPa Calm   2mph /  3.2km/h 90% 0in /  0.0mm 107 W/m2
13:39 35.2 °F /  1.8 °C 32.4 °F /  0.2 °C 29.9in /  1012.9hPa East 3mph /  4.8km/h 3mph /  4.8km/h 89% 0in /  0.0mm 107 W/m2
13:44 35.4 °F /  1.9 °C 32.5 °F /  0.3 °C 29.9in /  1012.5hPa Calm   1mph /  1.6km/h 89% 0in /  0.0mm 105 W/m2
13:49 35.4 °F /  1.9 °C 32.5 °F /  0.3 °C 29.9in /  1012.5hPa ESE 0.9mph /  1.4km/h 2mph /  3.2km/h 89% 0in /  0.0mm 104 W/m2
13:54 35.8 °F /  2.1 °C 32.9 °F /  0.5 °C 29.9in /  1012.5hPa Calm   2mph /  3.2km/h 89% 0in /  0.0mm 93 W/m2
13:59 35.8 °F /  2.1 °C 32.9 °F /  0.5 °C 29.9in /  1012.5hPa Calm   1mph /  1.6km/h 89% 0in /  0.0mm 88 W/m2
14:04 36 °F /  2.2 °C 33.1 °F /  0.6 °C 29.9in /  1012.5hPa East 0.9mph /  1.4km/h 1mph /  1.6km/h 89% 0in /  0.0mm 83 W/m2
14:09 36 °F /  2.2 °C 32.7 °F /  0.4 °C 29.9in /  1012.5hPa Calm   1mph /  1.6km/h 88% 0in /  0.0mm 81 W/m2
14:14 36.1 °F /  2.3 °C 32.9 °F /  0.5 °C 29.9in /  1012.5hPa Calm   1mph /  1.6km/h 88% 0in /  0.0mm 79 W/m2
14:19 36.1 °F /  2.3 °C 32.7 °F /  0.4 °C 29.9in /  1012.5hPa ENE 2mph /  3.2km/h 6mph /  9.7km/h 87% 0in /  0.0mm 70 W/m2
14:24 36.1 °F /  2.3 °C 32.7 °F /  0.4 °C 29.9in /  1012.5hPa Calm   3mph /  4.8km/h 87% 0in /  0.0mm 63 W/m2
14:29 36.1 °F /  2.3 °C 32.4 °F /  0.2 °C 29.9in /  1012.5hPa East 0.9mph /  1.4km/h 5mph /  8km/h 86% 0in /  0.0mm 63 W/m2
14:34 36.3 °F /  2.4 °C 32.5 °F /  0.3 °C 29.9in /  1012.5hPa Calm   1mph /  1.6km/h 86% 0in /  0.0mm 62 W/m2
14:39 36.3 °F /  2.4 °C 32.2 °F /  0.1 °C 29.9in /  1012.5hPa ENE 0.9mph /  1.4km/h 2mph /  3.2km/h 85% 0in /  0.0mm 60 W/m2
14:44 36.5 °F /  2.5 °C 32.4 °F /  0.2 °C 29.9in /  1012.5hPa ENE 0.9mph /  1.4km/h 1mph /  1.6km/h 85% 0in /  0.0mm 56 W/m2
14:49 36.5 °F /  2.5 °C 32.4 °F /  0.2 °C 29.9in /  1012.2hPa Calm     85% 0in /  0.0mm 54 W/m2
14:54 36.7 °F /  2.6 °C 32.5 °F /  0.3 °C 29.9in /  1012.5hPa ESE 0.9mph /  1.4km/h 2mph /  3.2km/h 85% 0in /  0.0mm 54 W/m2
14:59 36.7 °F /  2.6 °C 32.4 °F /  0.2 °C 29.9in /  1012.5hPa East 2.9mph /  4.7km/h 3mph /  4.8km/h 84% 0in /  0.0mm 49 W/m2
15:04 36.9 °F /  2.7 °C 32.2 °F /  0.1 °C 29.9in /  1012.2hPa Calm   3mph /  4.8km/h 83% 0in /  0.0mm 49 W/m2
15:09 36.9 °F /  2.7 °C 32.2 °F /  0.1 °C 29.9in /  1012.2hPa ENE 0.9mph /  1.4km/h 3mph /  4.8km/h 83% 0in /  0.0mm 54 W/m2
15:14 36.9 °F /  2.7 °C 31.8 °F /  -0.1 °C 29.9in /  1012.2hPa Calm   1mph /  1.6km/h 82% 0in /  0.0mm 51 W/m2
15:19 37 °F /  2.8 °C 31.8 °F /  -0.1 °C 29.9in /  1012.2hPa NE 2mph /  3.2km/h 3mph /  4.8km/h 81% 0in /  0.0mm 54 W/m2
15:24 37 °F /  2.8 °C 31.8 °F /  -0.1 °C 29.9in /  1012.2hPa ESE 2mph /  3.2km/h 3mph /  4.8km/h 81% 0in /  0.0mm 53 W/m2
15:29 37 °F /  2.8 °C 31.8 °F /  -0.1 °C 29.9in /  1012.2hPa Calm   1mph /  1.6km/h 81% 0in /  0.0mm 46 W/m2
15:34 37.2 °F /  2.9 °C 32 °F /  0 °C 29.9in /  1012.2hPa Calm   3mph /  4.8km/h 81% 0in /  0.0mm 37 W/m2
15:39 37.2 °F /  2.9 °C 32.2 °F /  0.1 °C 29.9in /  1012.2hPa Calm   1mph /  1.6km/h 82% 0in /  0.0mm 40 W/m2
15:44 37.2 °F /  2.9 °C 32.2 °F /  0.1 °C 29.9in /  1012.2hPa NE 0.9mph /  1.4km/h 2mph /  3.2km/h 82% 0in /  0.0mm 37 W/m2
15:49 37.2 °F /  2.9 °C 32.2 °F /  0.1 °C 29.9in /  1012.2hPa Calm   1mph /  1.6km/h 82% 0in /  0.0mm 30 W/m2
15:54 37.2 °F /  2.9 °C 32.2 °F /  0.1 °C 29.9in /  1012.5hPa Calm   2mph /  3.2km/h 82% 0in /  0.0mm 25 W/m2
16:00 37 °F /  2.8 °C 32 °F /  0 °C 29.9in /  1012.5hPa North 2mph /  3.2km/h 3mph /  4.8km/h 82% 0in /  0.0mm 19 W/m2
16:05 37 °F /  2.8 °C 32.4 °F /  0.2 °C 29.9in /  1012.5hPa Calm   3mph /  4.8km/h 83% 0in /  0.0mm 16 W/m2
16:10 37 °F /  2.8 °C 32.4 °F /  0.2 °C 29.9in /  1012.5hPa Calm   2mph /  3.2km/h 83% 0in /  0.0mm 12 W/m2
16:15 37 °F /  2.8 °C 32.4 °F /  0.2 °C 29.9in /  1012.5hPa WNW 0.9mph /  1.4km/h 3mph /  4.8km/h 83% 0in /  0.0mm 11 W/m2
16:20 36.9 °F /  2.7 °C 32.5 °F /  0.3 °C 29.9in /  1012.5hPa Calm   2mph /  3.2km/h 84% 0in /  0.0mm 9 W/m2
16:25 36.9 °F /  2.7 °C 32.5 °F /  0.3 °C 29.9in /  1012.9hPa Calm   1mph /  1.6km/h 84% 0in /  0.0mm 7 W/m2
16:30 36.9 °F /  2.7 °C 32.5 °F /  0.3 °C 29.9in /  1012.9hPa North 0.9mph /  1.4km/h 1mph /  1.6km/h 84% 0in /  0.0mm 5 W/m2
16:35 36.7 °F /  2.6 °C 32.4 °F /  0.2 °C 29.9in /  1012.5hPa Calm   1mph /  1.6km/h 84% 0in /  0.0mm 5 W/m2
16:40 36.7 °F /  2.6 °C 32.4 °F /  0.2 °C 29.9in /  1012.5hPa Calm     84% 0in /  0.0mm 0 W/m2
16:45 36.5 °F /  2.5 °C 32.4 °F /  0.2 °C 29.9in /  1012.9hPa Calm   2mph /  3.2km/h 85% 0in /  0.0mm 0 W/m2
16:50 36.5 °F /  2.5 °C 32.4 °F /  0.2 °C 29.9in /  1012.9hPa NE 0.9mph /  1.4km/h 1mph /  1.6km/h 85% 0in /  0.0mm 0 W/m2
16:55 36.3 °F /  2.4 °C 32.2 °F /  0.1 °C 29.9in /  1012.9hPa Calm   2mph /  3.2km/h 85% 0in /  0.0mm 0 W/m2
17:00 36.3 °F /  2.4 °C 32.2 °F /  0.1 °C 29.9in /  1012.9hPa Calm   1mph /  1.6km/h 85% 0in /  0.0mm 0 W/m2
17:05 36.1 °F /  2.3 °C 32 °F /  0 °C 29.9in /  1012.9hPa Calm   2mph /  3.2km/h 85% 0in /  0.0mm 0 W/m2
17:10 36.1 °F /  2.3 °C 32 °F /  0 °C 29.9in /  1012.9hPa North 0.9mph /  1.4km/h 2mph /  3.2km/h 85% 0in /  0.0mm 0 W/m2
17:15 36.1 °F /  2.3 °C 32.4 °F /  0.2 °C 29.9in /  1012.9hPa Calm   1mph /  1.6km/h 86% 0in /  0.0mm 0 W/m2
17:20 36 °F /  2.2 °C 32.2 °F /  0.1 °C 29.9in /  1012.9hPa Calm   2mph /  3.2km/h 86% 0in /  0.0mm 0 W/m2
17:25 36 °F /  2.2 °C 32.2 °F /  0.1 °C 29.9in /  1012.9hPa NNW 2mph /  3.2km/h 2mph /  3.2km/h 86% 0in /  0.0mm 0 W/m2
17:30 36 °F /  2.2 °C 32.2 °F /  0.1 °C 29.9in /  1012.9hPa NE 0.9mph /  1.4km/h 2mph /  3.2km/h 86% 0in /  0.0mm 0 W/m2
17:35 36 °F /  2.2 °C 32.2 °F /  0.1 °C 29.9in /  1012.9hPa ENE 0.9mph /  1.4km/h 2mph /  3.2km/h 86% 0in /  0.0mm 0 W/m2
17:40 36 °F /  2.2 °C 32.2 °F /  0.1 °C 29.9in /  1012.9hPa North 2mph /  3.2km/h 2mph /  3.2km/h 86% 0in /  0.0mm 0 W/m2
17:45 35.8 °F /  2.1 °C 32 °F /  0 °C 29.9in /  1012.9hPa NE 0.9mph /  1.4km/h 2mph /  3.2km/h 86% 0in /  0.0mm 0 W/m2
17:50 35.8 °F /  2.1 °C 32 °F /  0 °C 29.9in /  1012.9hPa ENE 2mph /  3.2km/h 3mph /  4.8km/h 86% 0in /  0.0mm 0 W/m2
17:55 35.8 °F /  2.1 °C 32.4 °F /  0.2 °C 29.9in /  1012.9hPa NE 0.9mph /  1.4km/h 2mph /  3.2km/h 87% 0in /  0.0mm 0 W/m2
18:00 35.8 °F /  2.1 °C 32.4 °F /  0.2 °C 29.9in /  1012.9hPa Calm   2mph /  3.2km/h 87% 0in /  0.0mm 0 W/m2
18:05 35.8 °F /  2.1 °C 32.4 °F /  0.2 °C 29.9in /  1012.9hPa NNE 0.9mph /  1.4km/h 1mph /  1.6km/h 87% 0in /  0.0mm 0 W/m2
18:10 35.6 °F /  2 °C 32.4 °F /  0.2 °C 29.9in /  1012.9hPa NE 0.9mph /  1.4km/h 2mph /  3.2km/h 88% 0in /  0.0mm 0 W/m2
18:16 35.6 °F /  2 °C 32.4 °F /  0.2 °C 29.9in /  1012.9hPa Calm   2mph /  3.2km/h 88% 0in /  0.0mm 0 W/m2
18:21 35.6 °F /  2 °C 32.4 °F /  0.2 °C 29.9in /  1012.9hPa NE 0.9mph /  1.4km/h 2mph /  3.2km/h 88% 0in /  0.0mm 0 W/m2
18:26 35.6 °F /  2 °C 32.4 °F /  0.2 °C 29.9in /  1012.9hPa Calm   3mph /  4.8km/h 88% 0in /  0.0mm 0 W/m2
18:31 35.4 °F /  1.9 °C 32.2 °F /  0.1 °C 29.9in /  1012.9hPa ENE 2mph /  3.2km/h 2mph /  3.2km/h 88% 0in /  0.0mm 0 W/m2
18:36 35.4 °F /  1.9 °C 32.2 °F /  0.1 °C 29.9in /  1012.9hPa Calm   2mph /  3.2km/h 88% 0in /  0.0mm 0 W/m2
18:41 35.4 °F /  1.9 °C 32.2 °F /  0.1 °C 29.9in /  1012.9hPa Calm   3mph /  4.8km/h 88% 0in /  0.0mm 0 W/m2
18:46 35.4 °F /  1.9 °C 32.2 °F /  0.1 °C 29.9in /  1012.9hPa North 2mph /  3.2km/h 3mph /  4.8km/h 88% 0in /  0.0mm 0 W/m2
18:51 35.4 °F /  1.9 °C 32.2 °F /  0.1 °C 29.9in /  1012.5hPa NNE 2mph /  3.2km/h 2mph /  3.2km/h 88% 0in /  0.0mm 0 W/m2
18:56 35.4 °F /  1.9 °C 32.2 °F /  0.1 °C 29.9in /  1012.5hPa Calm   3mph /  4.8km/h 88% 0in /  0.0mm 0 W/m2
19:01 35.2 °F /  1.8 °C 32 °F /  0 °C 29.9in /  1012.5hPa NNE 0.9mph /  1.4km/h 2mph /  3.2km/h 88% 0in /  0.0mm 0 W/m2
19:06 35.2 °F /  1.8 °C 32 °F /  0 °C 29.9in /  1012.5hPa Calm   3mph /  4.8km/h 88% 0in /  0.0mm 0 W/m2
19:11 35.2 °F /  1.8 °C 32 °F /  0 °C 29.9in /  1012.5hPa Calm   1mph /  1.6km/h 88% 0in /  0.0mm 0 W/m2
19:16 35.2 °F /  1.8 °C 32.4 °F /  0.2 °C 29.9in /  1012.5hPa WNW 0.9mph /  1.4km/h 2mph /  3.2km/h 89% 0in /  0.0mm 0 W/m2
19:21 35.2 °F /  1.8 °C 32.4 °F /  0.2 °C 29.9in /  1012.5hPa WNW 2mph /  3.2km/h 2mph /  3.2km/h 89% 0in /  0.0mm 0 W/m2
19:26 35.2 °F /  1.8 °C 32.4 °F /  0.2 °C 29.9in /  1012.5hPa Calm   1mph /  1.6km/h 89% 0in /  0.0mm 0 W/m2
19:31 35.2 °F /  1.8 °C 32.4 °F /  0.2 °C 29.9in /  1012.5hPa Calm   2mph /  3.2km/h 89% 0in /  0.0mm 0 W/m2
19:36 35.2 °F /  1.8 °C 32.4 °F /  0.2 °C 29.9in /  1012.2hPa NW 2mph /  3.2km/h 2mph /  3.2km/h 89% 0in /  0.0mm 0 W/m2
19:41 35.1 °F /  1.7 °C 32.2 °F /  0.1 °C 29.9in /  1012.5hPa WNW 2mph /  3.2km/h 2mph /  3.2km/h 89% 0in /  0.0mm 0 W/m2
19:46 35.1 °F /  1.7 °C 32.2 °F /  0.1 °C 29.9in /  1012.2hPa Calm   5mph /  8km/h 89% 0in /  0.0mm 0 W/m2
19:51 35.1 °F /  1.7 °C 32.2 °F /  0.1 °C 29.9in /  1012.5hPa West 2.9mph /  4.7km/h 3mph /  4.8km/h 89% 0in /  0.0mm 0 W/m2
19:56 35.2 °F /  1.8 °C 32.5 °F /  0.3 °C 29.9in /  1012.5hPa NNW 2.9mph /  4.7km/h 5mph /  8km/h 90% 0in /  0.0mm 0 W/m2
20:01 35.2 °F /  1.8 °C 32.4 °F /  0.2 °C 29.9in /  1012.5hPa NW 2mph /  3.2km/h 2mph /  3.2km/h 89% 0in /  0.0mm 0 W/m2
20:06 35.2 °F /  1.8 °C 32.4 °F /  0.2 °C 29.9in /  1012.5hPa North 2mph /  3.2km/h 3mph /  4.8km/h 89% 0in /  0.0mm 0 W/m2
20:11 35.2 °F /  1.8 °C 32.4 °F /  0.2 °C 29.9in /  1012.5hPa WNW 2.9mph /  4.7km/h 3mph /  4.8km/h 89% 0in /  0.0mm 0 W/m2
20:16 35.2 °F /  1.8 °C 32.4 °F /  0.2 °C 29.9in /  1012.5hPa West 2mph /  3.2km/h 5mph /  8km/h 89% 0in /  0.0mm 0 W/m2
20:21 35.2 °F /  1.8 °C 32.4 °F /  0.2 °C 29.9in /  1012.5hPa Calm   2mph /  3.2km/h 89% 0in /  0.0mm 0 W/m2
20:26 35.2 °F /  1.8 °C 32.4 °F /  0.2 °C 29.9in /  1012.5hPa Calm   2mph /  3.2km/h 89% 0in /  0.0mm 0 W/m2
20:31 35.2 °F /  1.8 °C 32.4 °F /  0.2 °C 29.9in /  1012.5hPa Calm   1mph /  1.6km/h 89% 0in /  0.0mm 0 W/m2
20:36 35.2 °F /  1.8 °C 32.4 °F /  0.2 °C 29.9in /  1012.5hPa Calm   1mph /  1.6km/h 89% 0in /  0.0mm 0 W/m2
20:41 35.1 °F /  1.7 °C 32.2 °F /  0.1 °C 29.9in /  1012.5hPa Calm   2mph /  3.2km/h 89% 0in /  0.0mm 0 W/m2
20:46 35.1 °F /  1.7 °C 32.2 °F /  0.1 °C 29.9in /  1012.5hPa Calm   2mph /  3.2km/h 89% 0in /  0.0mm 0 W/m2
20:51 35.1 °F /  1.7 °C 32.2 °F /  0.1 °C 29.9in /  1012.5hPa Calm   1mph /  1.6km/h 89% 0in /  0.0mm 0 W/m2
20:56 34.9 °F /  1.6 °C 32 °F /  0 °C 29.9in /  1012.5hPa Calm     89% 0in /  0.0mm 0 W/m2
21:01 34.9 °F /  1.6 °C 32.2 °F /  0.1 °C 29.9in /  1012.5hPa Calm     90% 0in /  0.0mm 0 W/m2
21:06 34.9 °F /  1.6 °C 32.2 °F /  0.1 °C 29.9in /  1012.5hPa Calm     90% 0in /  0.0mm 0 W/m2
21:11 34.9 °F /  1.6 °C 32.2 °F /  0.1 °C 29.9in /  1012.5hPa Calm     90% 0in /  0.0mm 0 W/m2
21:16 34.9 °F /  1.6 °C 32.2 °F /  0.1 °C 29.9in /  1012.5hPa NE 2mph /  3.2km/h 2mph /  3.2km/h 90% 0in /  0.0mm 0 W/m2
21:22 34.9 °F /  1.6 °C 32.2 °F /  0.1 °C 29.9in /  1012.5hPa Calm   1mph /  1.6km/h 90% 0in /  0.0mm 0 W/m2
21:27 34.9 °F /  1.6 °C 32.2 °F /  0.1 °C 29.9in /  1012.5hPa Calm   1mph /  1.6km/h 90% 0in /  0.0mm 0 W/m2
21:32 34.9 °F /  1.6 °C 32.2 °F /  0.1 °C 29.9in /  1012.9hPa Calm   1mph /  1.6km/h 90% 0in /  0.0mm 0 W/m2
21:37 34.9 °F /  1.6 °C 32.2 °F /  0.1 °C 29.9in /  1012.9hPa Calm   2mph /  3.2km/h 90% 0in /  0.0mm 0 W/m2
21:42 34.9 °F /  1.6 °C 32.2 °F /  0.1 °C 29.9in /  1012.9hPa Calm   2mph /  3.2km/h 90% 0in /  0.0mm 0 W/m2
21:47 34.9 °F /  1.6 °C 32.2 °F /  0.1 °C 29.9in /  1012.9hPa Calm   1mph /  1.6km/h 90% 0in /  0.0mm 0 W/m2
21:52 34.9 °F /  1.6 °C 32.2 °F /  0.1 °C 29.9in /  1012.9hPa NE 0.9mph /  1.4km/h 2mph /  3.2km/h 90% 0in /  0.0mm 0 W/m2
21:57 34.9 °F /  1.6 °C 32.2 °F /  0.1 °C 29.9in /  1012.9hPa NE 0.9mph /  1.4km/h 2mph /  3.2km/h 90% 0in /  0.0mm 0 W/m2
22:02 34.9 °F /  1.6 °C 32.5 °F /  0.3 °C 29.9in /  1012.9hPa Calm   2mph /  3.2km/h 91% 0in /  0.0mm 0 W/m2
22:07 34.9 °F /  1.6 °C 32.5 °F /  0.3 °C 29.9in /  1012.9hPa East 0.9mph /  1.4km/h 2mph /  3.2km/h 91% 0in /  0.0mm 0 W/m2
22:12 34.9 °F /  1.6 °C 32.5 °F /  0.3 °C 29.9in /  1012.9hPa Calm     91% 0in /  0.0mm 0 W/m2
22:17 34.9 °F /  1.6 °C 32.5 °F /  0.3 °C 29.9in /  1012.9hPa Calm   1mph /  1.6km/h 91% 0in /  0.0mm 0 W/m2
22:22 34.9 °F /  1.6 °C 32.5 °F /  0.3 °C 29.9in /  1012.9hPa Calm     91% 0in /  0.0mm 0 W/m2
22:27 34.7 °F /  1.5 °C 32.4 °F /  0.2 °C 29.9in /  1012.9hPa Calm     91% 0in /  0.0mm 0 W/m2
22:32 34.7 °F /  1.5 °C 32.4 °F /  0.2 °C 29.9in /  1012.9hPa Calm   1mph /  1.6km/h 91% 0in /  0.0mm 0 W/m2
22:37 34.7 °F /  1.5 °C 32.4 °F /  0.2 °C 29.9in /  1012.9hPa Calm     91% 0in /  0.0mm 0 W/m2
22:42 34.7 °F /  1.5 °C 32.5 °F /  0.3 °C 29.9in /  1012.9hPa ENE 2mph /  3.2km/h 3mph /  4.8km/h 92% 0in /  0.0mm 0 W/m2
22:47 34.7 °F /  1.5 °C 32.5 °F /  0.3 °C 29.9in /  1012.9hPa Calm   2mph /  3.2km/h 92% 0in /  0.0mm 0 W/m2
22:52 34.7 °F /  1.5 °C 32.5 °F /  0.3 °C 29.9in /  1012.9hPa NW 2mph /  3.2km/h 2mph /  3.2km/h 92% 0in /  0.0mm 0 W/m2
22:57 34.7 °F /  1.5 °C 32.5 °F /  0.3 °C 29.9in /  1012.9hPa Calm   1mph /  1.6km/h 92% 0in /  0.0mm 0 W/m2
23:02 34.5 °F /  1.4 °C 32.4 °F /  0.2 °C 29.9in /  1012.9hPa Calm   1mph /  1.6km/h 92% 0in /  0.0mm 0 W/m2
23:07 34.7 °F /  1.5 °C 32.5 °F /  0.3 °C 29.9in /  1012.9hPa NW 2mph /  3.2km/h 2mph /  3.2km/h 92% 0in /  0.0mm 0 W/m2
23:12 34.5 °F /  1.4 °C 32.4 °F /  0.2 °C 29.9in /  1012.9hPa NW 2mph /  3.2km/h 2mph /  3.2km/h 92% 0in /  0.0mm 0 W/m2
23:17 34.5 °F /  1.4 °C 32.2 °F /  0.1 °C 29.9in /  1012.9hPa Calm   4mph /  6.4km/h 91% 0in /  0.0mm 0 W/m2
23:22 34.5 °F /  1.4 °C 32.2 °F /  0.1 °C 29.9in /  1012.5hPa NW 0.9mph /  1.4km/h 2mph /  3.2km/h 91% 0in /  0.0mm 0 W/m2
23:27 34.5 °F /  1.4 °C 32.2 °F /  0.1 °C 29.9in /  1012.5hPa WNW 0.9mph /  1.4km/h 2mph /  3.2km/h 91% 0in /  0.0mm 0 W/m2
23:32 34.5 °F /  1.4 °C 32.2 °F /  0.1 °C 29.9in /  1012.5hPa Calm   1mph /  1.6km/h 91% 0in /  0.0mm 0 W/m2
23:37 34.5 °F /  1.4 °C 32.2 °F /  0.1 °C 29.9in /  1012.5hPa Calm   2mph /  3.2km/h 91% 0in /  0.0mm 0 W/m2
23:42 34.7 °F /  1.5 °C 32.4 °F /  0.2 °C 29.9in /  1012.5hPa NNW 2mph /  3.2km/h 2mph /  3.2km/h 91% 0in /  0.0mm 0 W/m2
23:47 34.9 °F /  1.6 °C 32.2 °F /  0.1 °C 29.9in /  1012.5hPa ENE 0.9mph /  1.4km/h 3mph /  4.8km/h 90% 0in /  0.0mm 0 W/m2
23:52 34.9 °F /  1.6 °C 32.2 °F /  0.1 °C 29.9in /  1012.2hPa NNE 0.9mph /  1.4km/h 2mph /  3.2km/h 90% 0in /  0.0mm 0 W/m2
23:57 34.9 °F /  1.6 °C 32 °F /  0 °C 29.9in /  1012.2hPa Calm   2mph /  3.2km/h 89% 0in /  0.0mm 0 W/m2
Juneau County Weather
Compliments of Weather Underground - 4 mb